sensor_id;sensor_type;location;lat;lon;timestamp;P1;durP1;ratioP1;P2;durP2;ratioP2
37341;SDS011;58643;49.052;8.518;2023-02-22T00:01:09;12.38;;;6.13;;
37341;SDS011;58643;49.052;8.518;2023-02-22T00:03:57;14.85;;;6.45;;
37341;SDS011;58643;49.052;8.518;2023-02-22T00:06:22;16.23;;;6.50;;
37341;SDS011;58643;49.052;8.518;2023-02-22T00:08:50;13.18;;;5.55;;
37341;SDS011;58643;49.052;8.518;2023-02-22T00:11:16;11.57;;;6.18;;
37341;SDS011;58643;49.052;8.518;2023-02-22T00:13:44;15.55;;;5.53;;
37341;SDS011;58643;49.052;8.518;2023-02-22T00:16:14;11.75;;;5.80;;
37341;SDS011;58643;49.052;8.518;2023-02-22T00:18:41;15.32;;;7.63;;
37341;SDS011;58643;49.052;8.518;2023-02-22T00:21:08;14.30;;;6.72;;
37341;SDS011;58643;49.052;8.518;2023-02-22T00:23:35;17.17;;;8.05;;
37341;SDS011;58643;49.052;8.518;2023-02-22T00:26:04;16.17;;;7.15;;
37341;SDS011;58643;49.052;8.518;2023-02-22T00:28:33;15.80;;;7.50;;
37341;SDS011;58643;49.052;8.518;2023-02-22T00:31:03;21.10;;;7.80;;
37341;SDS011;58643;49.052;8.518;2023-02-22T00:33:30;14.18;;;7.28;;
37341;SDS011;58643;49.052;8.518;2023-02-22T00:35:57;14.65;;;7.10;;
37341;SDS011;58643;49.052;8.518;2023-02-22T00:38:22;16.33;;;7.78;;
37341;SDS011;58643;49.052;8.518;2023-02-22T00:40:48;14.18;;;7.47;;
37341;SDS011;58643;49.052;8.518;2023-02-22T00:43:14;14.38;;;7.00;;
37341;SDS011;58643;49.052;8.518;2023-02-22T00:45:39;13.00;;;6.05;;
37341;SDS011;58643;49.052;8.518;2023-02-22T00:48:06;14.10;;;6.20;;
37341;SDS011;58643;49.052;8.518;2023-02-22T00:50:32;12.23;;;6.40;;
37341;SDS011;58643;49.052;8.518;2023-02-22T00:52:59;15.98;;;7.13;;
37341;SDS011;58643;49.052;8.518;2023-02-22T00:55:27;13.20;;;6.63;;
37341;SDS011;58643;49.052;8.518;2023-02-22T00:57:55;14.57;;;7.03;;
37341;SDS011;58643;49.052;8.518;2023-02-22T01:00:23;16.20;;;6.85;;
37341;SDS011;58643;49.052;8.518;2023-02-22T01:02:51;15.40;;;6.90;;
37341;SDS011;58643;49.052;8.518;2023-02-22T01:05:18;12.95;;;6.53;;
37341;SDS011;58643;49.052;8.518;2023-02-22T01:07:46;14.95;;;6.80;;
37341;SDS011;58643;49.052;8.518;2023-02-22T01:10:13;13.80;;;7.22;;
37341;SDS011;58643;49.052;8.518;2023-02-22T01:12:40;11.52;;;5.95;;
37341;SDS011;58643;49.052;8.518;2023-02-22T01:15:07;14.77;;;5.85;;
37341;SDS011;58643;49.052;8.518;2023-02-22T01:17:37;13.98;;;6.75;;
37341;SDS011;58643;49.052;8.518;2023-02-22T01:20:04;14.32;;;6.60;;
37341;SDS011;58643;49.052;8.518;2023-02-22T01:22:38;12.95;;;6.25;;
37341;SDS011;58643;49.052;8.518;2023-02-22T01:25:04;13.43;;;6.30;;
37341;SDS011;58643;49.052;8.518;2023-02-22T01:27:31;13.80;;;7.30;;
37341;SDS011;58643;49.052;8.518;2023-02-22T01:29:58;14.82;;;6.90;;
37341;SDS011;58643;49.052;8.518;2023-02-22T01:32:23;16.63;;;8.50;;
37341;SDS011;58643;49.052;8.518;2023-02-22T01:34:51;17.17;;;7.80;;
37341;SDS011;58643;49.052;8.518;2023-02-22T01:37:17;18.73;;;8.20;;
37341;SDS011;58643;49.052;8.518;2023-02-22T01:39:43;16.02;;;7.50;;
37341;SDS011;58643;49.052;8.518;2023-02-22T01:42:09;18.48;;;7.63;;
37341;SDS011;58643;49.052;8.518;2023-02-22T01:44:35;12.30;;;6.40;;
37341;SDS011;58643;49.052;8.518;2023-02-22T01:47:03;14.07;;;6.45;;
37341;SDS011;58643;49.052;8.518;2023-02-22T01:49:48;16.15;;;6.93;;
37341;SDS011;58643;49.052;8.518;2023-02-22T01:52:16;9.25;;;5.80;;
37341;SDS011;58643;49.052;8.518;2023-02-22T01:55:03;16.13;;;7.20;;
37341;SDS011;58643;49.052;8.518;2023-02-22T01:57:30;11.07;;;6.20;;
37341;SDS011;58643;49.052;8.518;2023-02-22T01:59:59;15.63;;;6.75;;
37341;SDS011;58643;49.052;8.518;2023-02-22T02:02:38;10.73;;;6.30;;
37341;SDS011;58643;49.052;8.518;2023-02-22T02:05:07;11.65;;;6.00;;
37341;SDS011;58643;49.052;8.518;2023-02-22T02:07:34;19.42;;;7.68;;
37341;SDS011;58643;49.052;8.518;2023-02-22T02:10:09;12.05;;;7.40;;
37341;SDS011;58643;49.052;8.518;2023-02-22T02:12:38;19.15;;;6.85;;
37341;SDS011;58643;49.052;8.518;2023-02-22T02:15:15;10.75;;;6.25;;
37341;SDS011;58643;49.052;8.518;2023-02-22T02:17:50;10.07;;;6.22;;
37341;SDS011;58643;49.052;8.518;2023-02-22T02:25:46;12.18;;;6.72;;
37341;SDS011;58643;49.052;8.518;2023-02-22T02:37:09;15.10;;;6.53;;
37341;SDS011;58643;49.052;8.518;2023-02-22T02:44:50;13.18;;;6.80;;
37341;SDS011;58643;49.052;8.518;2023-02-22T02:47:20;14.50;;;7.20;;
37341;SDS011;58643;49.052;8.518;2023-02-22T02:49:56;15.13;;;7.65;;
37341;SDS011;58643;49.052;8.518;2023-02-22T02:52:28;15.35;;;6.95;;
37341;SDS011;58643;49.052;8.518;2023-02-22T02:54:57;16.13;;;7.35;;
37341;SDS011;58643;49.052;8.518;2023-02-22T02:57:23;14.93;;;6.93;;
37341;SDS011;58643;49.052;8.518;2023-02-22T02:59:49;14.20;;;7.40;;
37341;SDS011;58643;49.052;8.518;2023-02-22T03:10:41;17.95;;;7.88;;
37341;SDS011;58643;49.052;8.518;2023-02-22T03:13:07;13.95;;;7.35;;
37341;SDS011;58643;49.052;8.518;2023-02-22T03:18:27;12.90;;;7.18;;
37341;SDS011;58643;49.052;8.518;2023-02-22T03:27:09;16.50;;;7.70;;
37341;SDS011;58643;49.052;8.518;2023-02-22T03:29:42;19.17;;;7.72;;
37341;SDS011;58643;49.052;8.518;2023-02-22T03:32:11;17.35;;;9.00;;
37341;SDS011;58643;49.052;8.518;2023-02-22T03:35:15;15.38;;;8.52;;
37341;SDS011;58643;49.052;8.518;2023-02-22T03:37:39;17.75;;;8.80;;
37341;SDS011;58643;49.052;8.518;2023-02-22T03:40:09;16.48;;;8.00;;
37341;SDS011;58643;49.052;8.518;2023-02-22T03:42:39;20.55;;;8.98;;
37341;SDS011;58643;49.052;8.518;2023-02-22T03:45:15;16.60;;;8.65;;
37341;SDS011;58643;49.052;8.518;2023-02-22T03:47:46;17.15;;;7.65;;
37341;SDS011;58643;49.052;8.518;2023-02-22T03:50:17;22.05;;;8.55;;
37341;SDS011;58643;49.052;8.518;2023-02-22T03:52:46;19.55;;;8.32;;
37341;SDS011;58643;49.052;8.518;2023-02-22T03:55:12;17.38;;;8.25;;
37341;SDS011;58643;49.052;8.518;2023-02-22T03:57:42;17.45;;;8.85;;
37341;SDS011;58643;49.052;8.518;2023-02-22T04:00:20;14.85;;;7.97;;
37341;SDS011;58643;49.052;8.518;2023-02-22T04:02:48;18.27;;;8.35;;
37341;SDS011;58643;49.052;8.518;2023-02-22T04:05:13;19.90;;;8.15;;
37341;SDS011;58643;49.052;8.518;2023-02-22T04:07:40;23.98;;;7.90;;
37341;SDS011;58643;49.052;8.518;2023-02-22T04:10:06;17.90;;;8.57;;
37341;SDS011;58643;49.052;8.518;2023-02-22T04:12:35;21.17;;;8.52;;
37341;SDS011;58643;49.052;8.518;2023-02-22T04:15:01;20.17;;;9.05;;
37341;SDS011;58643;49.052;8.518;2023-02-22T04:17:28;20.48;;;8.57;;
37341;SDS011;58643;49.052;8.518;2023-02-22T04:19:53;19.42;;;8.07;;
37341;SDS011;58643;49.052;8.518;2023-02-22T04:22:19;16.98;;;8.20;;
37341;SDS011;58643;49.052;8.518;2023-02-22T04:24:45;14.10;;;8.20;;
37341;SDS011;58643;49.052;8.518;2023-02-22T04:27:10;15.77;;;7.88;;
37341;SDS011;58643;49.052;8.518;2023-02-22T04:29:36;17.30;;;8.18;;
37341;SDS011;58643;49.052;8.518;2023-02-22T04:32:02;20.13;;;8.05;;
37341;SDS011;58643;49.052;8.518;2023-02-22T04:34:27;14.23;;;7.90;;
37341;SDS011;58643;49.052;8.518;2023-02-22T04:36:53;15.45;;;9.25;;
37341;SDS011;58643;49.052;8.518;2023-02-22T04:39:18;17.05;;;9.07;;
37341;SDS011;58643;49.052;8.518;2023-02-22T04:41:44;16.30;;;8.82;;
37341;SDS011;58643;49.052;8.518;2023-02-22T04:44:11;13.18;;;7.82;;
37341;SDS011;58643;49.052;8.518;2023-02-22T04:46:37;26.80;;;8.50;;
37341;SDS011;58643;49.052;8.518;2023-02-22T04:49:03;19.67;;;8.90;;
37341;SDS011;58643;49.052;8.518;2023-02-22T04:51:28;14.52;;;8.30;;
37341;SDS011;58643;49.052;8.518;2023-02-22T04:53:54;18.08;;;8.73;;
37341;SDS011;58643;49.052;8.518;2023-02-22T04:56:20;12.43;;;7.00;;
37341;SDS011;58643;49.052;8.518;2023-02-22T04:58:46;12.63;;;7.57;;
37341;SDS011;58643;49.052;8.518;2023-02-22T05:01:11;15.15;;;7.90;;
37341;SDS011;58643;49.052;8.518;2023-02-22T05:03:39;16.00;;;8.27;;
37341;SDS011;58643;49.052;8.518;2023-02-22T05:06:04;15.18;;;6.97;;
37341;SDS011;58643;49.052;8.518;2023-02-22T05:08:30;15.80;;;8.55;;
37341;SDS011;58643;49.052;8.518;2023-02-22T05:10:56;18.05;;;8.70;;
37341;SDS011;58643;49.052;8.518;2023-02-22T05:13:21;18.00;;;8.48;;
37341;SDS011;58643;49.052;8.518;2023-02-22T05:15:47;15.07;;;8.02;;
37341;SDS011;58643;49.052;8.518;2023-02-22T05:18:13;14.60;;;7.75;;
37341;SDS011;58643;49.052;8.518;2023-02-22T05:20:39;14.98;;;7.68;;
37341;SDS011;58643;49.052;8.518;2023-02-22T05:23:05;20.70;;;8.75;;
37341;SDS011;58643;49.052;8.518;2023-02-22T05:25:31;16.05;;;7.90;;
37341;SDS011;58643;49.052;8.518;2023-02-22T05:27:59;17.27;;;8.52;;
37341;SDS011;58643;49.052;8.518;2023-02-22T05:30:31;18.73;;;7.93;;
37341;SDS011;58643;49.052;8.518;2023-02-22T05:32:59;13.55;;;7.18;;
37341;SDS011;58643;49.052;8.518;2023-02-22T05:35:25;13.93;;;7.53;;
37341;SDS011;58643;49.052;8.518;2023-02-22T05:37:51;20.20;;;8.63;;
37341;SDS011;58643;49.052;8.518;2023-02-22T05:40:21;14.43;;;7.78;;
37341;SDS011;58643;49.052;8.518;2023-02-22T05:42:48;15.18;;;8.10;;
37341;SDS011;58643;49.052;8.518;2023-02-22T05:45:15;17.77;;;8.10;;
37341;SDS011;58643;49.052;8.518;2023-02-22T05:47:42;26.95;;;11.20;;
37341;SDS011;58643;49.052;8.518;2023-02-22T05:50:08;33.50;;;13.15;;
37341;SDS011;58643;49.052;8.518;2023-02-22T05:52:34;20.55;;;9.77;;
37341;SDS011;58643;49.052;8.518;2023-02-22T05:55:00;18.65;;;9.63;;
37341;SDS011;58643;49.052;8.518;2023-02-22T05:57:25;19.60;;;10.27;;
37341;SDS011;58643;49.052;8.518;2023-02-22T05:59:51;22.55;;;10.05;;
37341;SDS011;58643;49.052;8.518;2023-02-22T06:02:16;19.25;;;10.48;;
37341;SDS011;58643;49.052;8.518;2023-02-22T06:04:45;17.52;;;8.95;;
37341;SDS011;58643;49.052;8.518;2023-02-22T06:07:11;20.30;;;9.38;;
37341;SDS011;58643;49.052;8.518;2023-02-22T06:09:38;21.42;;;9.77;;
37341;SDS011;58643;49.052;8.518;2023-02-22T06:12:04;20.42;;;10.43;;
37341;SDS011;58643;49.052;8.518;2023-02-22T06:14:30;15.60;;;9.38;;
37341;SDS011;58643;49.052;8.518;2023-02-22T06:16:56;16.95;;;8.82;;
37341;SDS011;58643;49.052;8.518;2023-02-22T06:19:23;19.35;;;9.52;;
37341;SDS011;58643;49.052;8.518;2023-02-22T06:21:49;16.60;;;8.82;;
37341;SDS011;58643;49.052;8.518;2023-02-22T06:24:15;18.60;;;9.70;;
37341;SDS011;58643;49.052;8.518;2023-02-22T06:26:41;22.05;;;10.20;;
37341;SDS011;58643;49.052;8.518;2023-02-22T06:29:06;19.70;;;9.95;;
37341;SDS011;58643;49.052;8.518;2023-02-22T06:31:32;20.30;;;10.50;;
37341;SDS011;58643;49.052;8.518;2023-02-22T06:33:58;28.38;;;10.68;;
37341;SDS011;58643;49.052;8.518;2023-02-22T06:36:23;24.15;;;11.63;;
37341;SDS011;58643;49.052;8.518;2023-02-22T06:38:49;20.10;;;10.50;;
37341;SDS011;58643;49.052;8.518;2023-02-22T06:41:15;19.52;;;9.55;;
37341;SDS011;58643;49.052;8.518;2023-02-22T06:43:40;22.15;;;10.07;;
37341;SDS011;58643;49.052;8.518;2023-02-22T06:46:10;21.30;;;10.32;;
37341;SDS011;58643;49.052;8.518;2023-02-22T06:48:36;17.70;;;10.07;;
37341;SDS011;58643;49.052;8.518;2023-02-22T06:51:04;21.65;;;9.77;;
37341;SDS011;58643;49.052;8.518;2023-02-22T06:53:33;22.73;;;10.75;;
37341;SDS011;58643;49.052;8.518;2023-02-22T06:55:59;18.60;;;9.93;;
37341;SDS011;58643;49.052;8.518;2023-02-22T06:58:26;22.40;;;10.48;;
37341;SDS011;58643;49.052;8.518;2023-02-22T07:00:52;24.10;;;12.18;;
37341;SDS011;58643;49.052;8.518;2023-02-22T07:03:18;21.38;;;11.25;;
37341;SDS011;58643;49.052;8.518;2023-02-22T07:05:44;23.33;;;11.82;;
37341;SDS011;58643;49.052;8.518;2023-02-22T07:08:10;27.00;;;12.57;;
37341;SDS011;58643;49.052;8.518;2023-02-22T07:10:36;22.00;;;12.18;;
37341;SDS011;58643;49.052;8.518;2023-02-22T07:13:03;32.60;;;13.82;;
37341;SDS011;58643;49.052;8.518;2023-02-22T07:15:31;25.35;;;12.45;;
37341;SDS011;58643;49.052;8.518;2023-02-22T07:17:57;23.42;;;11.57;;
37341;SDS011;58643;49.052;8.518;2023-02-22T07:20:24;19.05;;;10.57;;
37341;SDS011;58643;49.052;8.518;2023-02-22T07:22:51;21.50;;;10.52;;
37341;SDS011;58643;49.052;8.518;2023-02-22T07:25:17;23.00;;;13.10;;
37341;SDS011;58643;49.052;8.518;2023-02-22T07:27:43;20.35;;;11.38;;
37341;SDS011;58643;49.052;8.518;2023-02-22T07:30:22;21.65;;;12.05;;
37341;SDS011;58643;49.052;8.518;2023-02-22T07:32:52;17.00;;;9.32;;
37341;SDS011;58643;49.052;8.518;2023-02-22T07:35:26;19.40;;;10.32;;
37341;SDS011;58643;49.052;8.518;2023-02-22T07:37:56;15.82;;;9.75;;
37341;SDS011;58643;49.052;8.518;2023-02-22T07:40:22;16.50;;;8.98;;
37341;SDS011;58643;49.052;8.518;2023-02-22T07:45:32;17.00;;;9.18;;
37341;SDS011;58643;49.052;8.518;2023-02-22T07:47:59;17.55;;;8.77;;
37341;SDS011;58643;49.052;8.518;2023-02-22T07:50:27;14.07;;;7.97;;
37341;SDS011;58643;49.052;8.518;2023-02-22T07:52:55;14.73;;;8.10;;
37341;SDS011;58643;49.052;8.518;2023-02-22T07:55:23;18.90;;;7.95;;
37341;SDS011;58643;49.052;8.518;2023-02-22T07:57:51;15.38;;;8.43;;
37341;SDS011;58643;49.052;8.518;2023-02-22T08:00:23;16.50;;;8.13;;
37341;SDS011;58643;49.052;8.518;2023-02-22T08:02:56;14.45;;;8.02;;
37341;SDS011;58643;49.052;8.518;2023-02-22T08:05:23;19.20;;;8.85;;
37341;SDS011;58643;49.052;8.518;2023-02-22T08:07:50;14.38;;;8.30;;
37341;SDS011;58643;49.052;8.518;2023-02-22T08:10:16;15.05;;;7.75;;
37341;SDS011;58643;49.052;8.518;2023-02-22T08:12:43;22.83;;;10.20;;
37341;SDS011;58643;49.052;8.518;2023-02-22T08:15:14;21.05;;;9.35;;
37341;SDS011;58643;49.052;8.518;2023-02-22T08:17:41;15.38;;;7.97;;
37341;SDS011;58643;49.052;8.518;2023-02-22T08:20:07;17.88;;;7.80;;
37341;SDS011;58643;49.052;8.518;2023-02-22T08:22:33;17.42;;;7.88;;
37341;SDS011;58643;49.052;8.518;2023-02-22T08:24:58;18.08;;;8.32;;
37341;SDS011;58643;49.052;8.518;2023-02-22T08:27:25;14.88;;;7.78;;
37341;SDS011;58643;49.052;8.518;2023-02-22T08:29:52;17.40;;;8.45;;
37341;SDS011;58643;49.052;8.518;2023-02-22T08:32:18;17.60;;;8.48;;
37341;SDS011;58643;49.052;8.518;2023-02-22T08:34:45;15.20;;;8.02;;
37341;SDS011;58643;49.052;8.518;2023-02-22T08:37:11;17.98;;;8.00;;
37341;SDS011;58643;49.052;8.518;2023-02-22T08:39:36;15.02;;;8.48;;
37341;SDS011;58643;49.052;8.518;2023-02-22T08:42:02;11.95;;;7.40;;
37341;SDS011;58643;49.052;8.518;2023-02-22T08:44:28;18.13;;;7.80;;
37341;SDS011;58643;49.052;8.518;2023-02-22T08:46:53;16.65;;;7.97;;
37341;SDS011;58643;49.052;8.518;2023-02-22T08:49:19;12.60;;;6.68;;
37341;SDS011;58643;49.052;8.518;2023-02-22T08:51:45;13.68;;;7.43;;
37341;SDS011;58643;49.052;8.518;2023-02-22T08:54:11;13.60;;;6.40;;
37341;SDS011;58643;49.052;8.518;2023-02-22T08:56:36;11.90;;;6.38;;
37341;SDS011;58643;49.052;8.518;2023-02-22T08:59:02;11.10;;;6.35;;
37341;SDS011;58643;49.052;8.518;2023-02-22T09:01:28;17.85;;;7.97;;
37341;SDS011;58643;49.052;8.518;2023-02-22T09:03:54;13.80;;;6.72;;
37341;SDS011;58643;49.052;8.518;2023-02-22T09:06:21;15.95;;;6.20;;
37341;SDS011;58643;49.052;8.518;2023-02-22T09:08:47;11.32;;;6.28;;
37341;SDS011;58643;49.052;8.518;2023-02-22T09:11:13;13.25;;;5.97;;
37341;SDS011;58643;49.052;8.518;2023-02-22T09:13:38;16.00;;;6.32;;
37341;SDS011;58643;49.052;8.518;2023-02-22T09:16:04;13.38;;;5.78;;
37341;SDS011;58643;49.052;8.518;2023-02-22T09:18:30;12.48;;;5.50;;
37341;SDS011;58643;49.052;8.518;2023-02-22T09:20:56;11.60;;;5.88;;
37341;SDS011;58643;49.052;8.518;2023-02-22T09:23:22;11.70;;;5.60;;
37341;SDS011;58643;49.052;8.518;2023-02-22T09:25:48;13.13;;;5.63;;
37341;SDS011;58643;49.052;8.518;2023-02-22T09:28:14;12.32;;;6.40;;
37341;SDS011;58643;49.052;8.518;2023-02-22T09:30:40;8.88;;;5.50;;
37341;SDS011;58643;49.052;8.518;2023-02-22T09:33:13;17.38;;;5.82;;
37341;SDS011;58643;49.052;8.518;2023-02-22T09:35:41;9.73;;;5.50;;
37341;SDS011;58643;49.052;8.518;2023-02-22T09:38:10;9.68;;;5.95;;
37341;SDS011;58643;49.052;8.518;2023-02-22T09:40:48;9.23;;;5.40;;
37341;SDS011;58643;49.052;8.518;2023-02-22T09:43:26;9.52;;;5.57;;
37341;SDS011;58643;49.052;8.518;2023-02-22T09:48:30;12.77;;;4.93;;
37341;SDS011;58643;49.052;8.518;2023-02-22T09:51:00;9.10;;;4.38;;
37341;SDS011;58643;49.052;8.518;2023-02-22T09:53:41;9.32;;;4.70;;
37341;SDS011;58643;49.052;8.518;2023-02-22T09:56:11;11.10;;;4.38;;
37341;SDS011;58643;49.052;8.518;2023-02-22T09:58:44;14.85;;;5.38;;
37341;SDS011;58643;49.052;8.518;2023-02-22T10:01:32;8.73;;;4.03;;
37341;SDS011;58643;49.052;8.518;2023-02-22T10:04:15;6.78;;;4.30;;
37341;SDS011;58643;49.052;8.518;2023-02-22T10:07:34;11.95;;;4.40;;
37341;SDS011;58643;49.052;8.518;2023-02-22T10:09:34;7.55;;;3.97;;
37341;SDS011;58643;49.052;8.518;2023-02-22T10:12:24;7.35;;;4.55;;
37341;SDS011;58643;49.052;8.518;2023-02-22T10:17:47;9.02;;;4.30;;
37341;SDS011;58643;49.052;8.518;2023-02-22T10:25:38;9.32;;;4.43;;
37341;SDS011;58643;49.052;8.518;2023-02-22T10:30:46;8.65;;;5.18;;
37341;SDS011;58643;49.052;8.518;2023-02-22T10:33:22;12.65;;;6.22;;
37341;SDS011;58643;49.052;8.518;2023-02-22T10:35:50;11.45;;;6.13;;
37341;SDS011;58643;49.052;8.518;2023-02-22T10:38:19;12.68;;;6.05;;
37341;SDS011;58643;49.052;8.518;2023-02-22T10:43:21;9.23;;;6.30;;
37341;SDS011;58643;49.052;8.518;2023-02-22T10:45:49;10.73;;;6.22;;
37341;SDS011;58643;49.052;8.518;2023-02-22T10:48:20;11.90;;;6.20;;
37341;SDS011;58643;49.052;8.518;2023-02-22T10:50:47;11.75;;;6.68;;
37341;SDS011;58643;49.052;8.518;2023-02-22T10:53:14;14.10;;;6.50;;
37341;SDS011;58643;49.052;8.518;2023-02-22T10:58:46;18.10;;;7.10;;
37341;SDS011;58643;49.052;8.518;2023-02-22T11:06:40;12.25;;;6.93;;
37341;SDS011;58643;49.052;8.518;2023-02-22T11:09:12;12.20;;;6.55;;
37341;SDS011;58643;49.052;8.518;2023-02-22T11:11:40;12.65;;;7.00;;
37341;SDS011;58643;49.052;8.518;2023-02-22T11:14:10;9.68;;;6.10;;
37341;SDS011;58643;49.052;8.518;2023-02-22T11:16:38;10.15;;;6.57;;
37341;SDS011;58643;49.052;8.518;2023-02-22T11:19:17;11.48;;;6.95;;
37341;SDS011;58643;49.052;8.518;2023-02-22T11:21:44;16.13;;;7.63;;
37341;SDS011;58643;49.052;8.518;2023-02-22T11:24:18;16.80;;;7.05;;
37341;SDS011;58643;49.052;8.518;2023-02-22T11:26:49;18.15;;;10.30;;
37341;SDS011;58643;49.052;8.518;2023-02-22T11:31:43;13.73;;;6.88;;
37341;SDS011;58643;49.052;8.518;2023-02-22T11:34:30;16.45;;;8.88;;
37341;SDS011;58643;49.052;8.518;2023-02-22T11:39:46;12.13;;;7.40;;
37341;SDS011;58643;49.052;8.518;2023-02-22T11:42:31;14.27;;;7.40;;
37341;SDS011;58643;49.052;8.518;2023-02-22T11:45:08;11.80;;;7.65;;
37341;SDS011;58643;49.052;8.518;2023-02-22T11:47:34;12.45;;;7.20;;
37341;SDS011;58643;49.052;8.518;2023-02-22T11:50:09;18.98;;;7.38;;
37341;SDS011;58643;49.052;8.518;2023-02-22T11:52:46;12.32;;;7.25;;
37341;SDS011;58643;49.052;8.518;2023-02-22T11:55:26;14.13;;;7.80;;
37341;SDS011;58643;49.052;8.518;2023-02-22T11:58:23;14.50;;;7.65;;
37341;SDS011;58643;49.052;8.518;2023-02-22T12:03:51;16.92;;;8.48;;
37341;SDS011;58643;49.052;8.518;2023-02-22T12:09:45;15.82;;;8.55;;
37341;SDS011;58643;49.052;8.518;2023-02-22T12:18:00;12.38;;;7.75;;
37341;SDS011;58643;49.052;8.518;2023-02-22T12:20:44;14.60;;;8.23;;
37341;SDS011;58643;49.052;8.518;2023-02-22T12:29:11;16.05;;;8.15;;
37341;SDS011;58643;49.052;8.518;2023-02-22T12:31:50;16.75;;;8.77;;
37341;SDS011;58643;49.052;8.518;2023-02-22T12:34:37;23.20;;;10.30;;
37341;SDS011;58643;49.052;8.518;2023-02-22T12:37:14;15.88;;;8.10;;
37341;SDS011;58643;49.052;8.518;2023-02-22T12:45:27;16.50;;;8.93;;
37341;SDS011;58643;49.052;8.518;2023-02-22T12:48:13;24.52;;;9.65;;
37341;SDS011;58643;49.052;8.518;2023-02-22T12:53:39;19.45;;;9.10;;
37341;SDS011;58643;49.052;8.518;2023-02-22T12:58:54;17.40;;;8.48;;
37341;SDS011;58643;49.052;8.518;2023-02-22T13:01:27;15.95;;;9.25;;
37341;SDS011;58643;49.052;8.518;2023-02-22T13:06:51;15.32;;;8.48;;
37341;SDS011;58643;49.052;8.518;2023-02-22T13:12:08;18.92;;;9.93;;
37341;SDS011;58643;49.052;8.518;2023-02-22T13:20:29;16.15;;;9.70;;
37341;SDS011;58643;49.052;8.518;2023-02-22T13:26:10;18.25;;;9.65;;
37341;SDS011;58643;49.052;8.518;2023-02-22T13:28:43;19.85;;;9.38;;
37341;SDS011;58643;49.052;8.518;2023-02-22T13:33:44;20.58;;;11.40;;
37341;SDS011;58643;49.052;8.518;2023-02-22T13:44:20;24.17;;;11.48;;
37341;SDS011;58643;49.052;8.518;2023-02-22T13:52:19;17.63;;;10.52;;
37341;SDS011;58643;49.052;8.518;2023-02-22T13:57:28;18.35;;;11.07;;
37341;SDS011;58643;49.052;8.518;2023-02-22T14:16:27;18.90;;;10.25;;
37341;SDS011;58643;49.052;8.518;2023-02-22T14:19:16;17.75;;;9.20;;
37341;SDS011;58643;49.052;8.518;2023-02-22T14:24:49;19.00;;;9.82;;
37341;SDS011;58643;49.052;8.518;2023-02-22T14:27:15;22.83;;;10.27;;
37341;SDS011;58643;49.052;8.518;2023-02-22T14:29:51;17.83;;;9.70;;
37341;SDS011;58643;49.052;8.518;2023-02-22T14:32:28;19.80;;;11.02;;
37341;SDS011;58643;49.052;8.518;2023-02-22T14:34:56;18.20;;;10.98;;
37341;SDS011;58643;49.052;8.518;2023-02-22T14:37:29;21.40;;;10.80;;
37341;SDS011;58643;49.052;8.518;2023-02-22T14:42:44;20.05;;;10.88;;
37341;SDS011;58643;49.052;8.518;2023-02-22T14:48:34;20.20;;;10.60;;
37341;SDS011;58643;49.052;8.518;2023-02-22T14:53:37;18.88;;;10.55;;
37341;SDS011;58643;49.052;8.518;2023-02-22T14:56:30;21.00;;;11.27;;
37341;SDS011;58643;49.052;8.518;2023-02-22T14:59:16;21.08;;;12.23;;
37341;SDS011;58643;49.052;8.518;2023-02-22T15:01:42;19.48;;;12.13;;
37341;SDS011;58643;49.052;8.518;2023-02-22T15:04:25;20.70;;;11.05;;
37341;SDS011;58643;49.052;8.518;2023-02-22T15:06:53;22.27;;;11.43;;
37341;SDS011;58643;49.052;8.518;2023-02-22T15:09:21;19.05;;;11.40;;
37341;SDS011;58643;49.052;8.518;2023-02-22T15:14:17;29.67;;;11.65;;
37341;SDS011;58643;49.052;8.518;2023-02-22T15:16:46;21.23;;;11.23;;
37341;SDS011;58643;49.052;8.518;2023-02-22T15:19:16;22.02;;;11.80;;
37341;SDS011;58643;49.052;8.518;2023-02-22T15:21:49;19.05;;;11.35;;
37341;SDS011;58643;49.052;8.518;2023-02-22T15:24:20;26.02;;;12.38;;
37341;SDS011;58643;49.052;8.518;2023-02-22T15:26:49;19.20;;;11.55;;
37341;SDS011;58643;49.052;8.518;2023-02-22T15:29:19;23.58;;;11.73;;
37341;SDS011;58643;49.052;8.518;2023-02-22T15:31:50;19.63;;;9.98;;
37341;SDS011;58643;49.052;8.518;2023-02-22T15:36:49;21.27;;;11.95;;
37341;SDS011;58643;49.052;8.518;2023-02-22T15:39:28;26.98;;;11.77;;
37341;SDS011;58643;49.052;8.518;2023-02-22T15:44:26;26.38;;;11.57;;
37341;SDS011;58643;49.052;8.518;2023-02-22T15:46:52;20.08;;;11.27;;
37341;SDS011;58643;49.052;8.518;2023-02-22T15:49:21;21.20;;;11.68;;
37341;SDS011;58643;49.052;8.518;2023-02-22T15:51:48;19.33;;;10.88;;
37341;SDS011;58643;49.052;8.518;2023-02-22T15:54:29;21.02;;;11.43;;
37341;SDS011;58643;49.052;8.518;2023-02-22T15:57:01;22.80;;;11.18;;
37341;SDS011;58643;49.052;8.518;2023-02-22T15:59:27;21.20;;;11.18;;
37341;SDS011;58643;49.052;8.518;2023-02-22T16:01:57;22.83;;;11.20;;
37341;SDS011;58643;49.052;8.518;2023-02-22T16:04:25;22.95;;;11.25;;
37341;SDS011;58643;49.052;8.518;2023-02-22T16:06:52;20.55;;;11.50;;
37341;SDS011;58643;49.052;8.518;2023-02-22T16:09:40;18.30;;;10.70;;
37341;SDS011;58643;49.052;8.518;2023-02-22T16:14:45;20.27;;;11.00;;
37341;SDS011;58643;49.052;8.518;2023-02-22T16:19:54;20.65;;;10.50;;
37341;SDS011;58643;49.052;8.518;2023-02-22T16:22:26;20.98;;;11.40;;
37341;SDS011;58643;49.052;8.518;2023-02-22T16:25:42;18.20;;;10.82;;
37341;SDS011;58643;49.052;8.518;2023-02-22T16:32:43;22.63;;;11.43;;
37341;SDS011;58643;49.052;8.518;2023-02-22T16:35:09;24.70;;;12.02;;
37341;SDS011;58643;49.052;8.518;2023-02-22T16:37:46;21.33;;;11.07;;
37341;SDS011;58643;49.052;8.518;2023-02-22T16:40:20;22.88;;;10.70;;
37341;SDS011;58643;49.052;8.518;2023-02-22T16:42:56;25.35;;;11.60;;
37341;SDS011;58643;49.052;8.518;2023-02-22T16:45:22;23.67;;;11.50;;
37341;SDS011;58643;49.052;8.518;2023-02-22T16:47:48;20.10;;;11.63;;
37341;SDS011;58643;49.052;8.518;2023-02-22T16:50:17;19.27;;;11.48;;
37341;SDS011;58643;49.052;8.518;2023-02-22T16:52:44;21.08;;;11.75;;
37341;SDS011;58643;49.052;8.518;2023-02-22T16:55:11;19.83;;;11.18;;
37341;SDS011;58643;49.052;8.518;2023-02-22T16:57:38;20.52;;;11.85;;
37341;SDS011;58643;49.052;8.518;2023-02-22T17:00:27;22.05;;;11.57;;
37341;SDS011;58643;49.052;8.518;2023-02-22T17:02:59;20.50;;;11.10;;
37341;SDS011;58643;49.052;8.518;2023-02-22T17:05:30;24.30;;;12.32;;
37341;SDS011;58643;49.052;8.518;2023-02-22T17:08:00;24.10;;;11.60;;
37341;SDS011;58643;49.052;8.518;2023-02-22T17:10:26;25.00;;;12.35;;
37341;SDS011;58643;49.052;8.518;2023-02-22T17:12:53;26.40;;;11.95;;
37341;SDS011;58643;49.052;8.518;2023-02-22T17:17:50;23.02;;;12.77;;
37341;SDS011;58643;49.052;8.518;2023-02-22T17:20:16;23.38;;;12.30;;
37341;SDS011;58643;49.052;8.518;2023-02-22T17:23:01;35.40;;;13.15;;
37341;SDS011;58643;49.052;8.518;2023-02-22T17:25:36;22.63;;;14.02;;
37341;SDS011;58643;49.052;8.518;2023-02-22T17:28:12;22.27;;;13.00;;
37341;SDS011;58643;49.052;8.518;2023-02-22T17:30:38;25.35;;;14.23;;
37341;SDS011;58643;49.052;8.518;2023-02-22T17:33:05;27.50;;;13.98;;
37341;SDS011;58643;49.052;8.518;2023-02-22T17:35:34;27.60;;;14.05;;
37341;SDS011;58643;49.052;8.518;2023-02-22T17:38:01;27.80;;;15.90;;
37341;SDS011;58643;49.052;8.518;2023-02-22T17:40:34;26.05;;;14.85;;
37341;SDS011;58643;49.052;8.518;2023-02-22T17:43:02;26.52;;;16.13;;
37341;SDS011;58643;49.052;8.518;2023-02-22T17:45:28;29.05;;;15.25;;